Time;durP1;ratioP1;P1;durP2;ratioP2;P2;SDS_P1;SDS_P2;PMS_P1;PMS_P2;Temp;Humidity;BMP_temperature;BMP_pressure;BME280_temperature;BME280_humidity;BME280_pressure;Samples;Min_cycle;Max_cycle;Signal;HPM_P1;HPM_P2
2022/12/12 00:00:17;;;;;;;12.38;5.78;;;16.70;76.00;;;18.45;40.51;97404.25;5056076;28;20037;-71
2022/12/12 00:03:03;;;;;;;10.60;6.05;;;16.60;76.20;;;18.52;40.60;97398.91;5042780;28;20064;-71
2022/12/12 00:05:29;;;;;;;7.75;5.93;;;16.60;76.10;;;18.56;40.21;97396.22;5019171;28;20055;-71
2022/12/12 00:07:55;;;;;;;9.30;6.10;;;16.70;76.00;;;18.55;40.55;97394.63;5032272;28;20036;-72
2022/12/12 00:10:21;;;;;;;7.80;5.70;;;16.70;76.10;;;18.57;40.63;97395.06;5035171;28;20422;-72
2022/12/12 00:12:47;;;;;;;8.38;5.63;;;16.70;76.10;;;18.56;40.93;97390.72;5056011;28;20045;-72
2022/12/12 00:15:13;;;;;;;12.00;6.10;;;16.60;76.20;;;18.53;40.50;97388.72;5035680;28;20098;-71
2022/12/12 00:17:39;;;;;;;8.77;5.63;;;16.70;76.10;;;18.50;40.30;97390.22;5050818;28;20496;-72
2022/12/12 00:20:06;;;;;;;9.20;6.25;;;16.60;76.20;;;18.52;40.43;97392.59;5070313;28;20037;-72
2022/12/12 00:22:32;;;;;;;10.55;5.78;;;16.60;76.30;;;18.52;40.61;97387.09;5055644;28;20056;-72
2022/12/12 00:24:58;;;;;;;7.22;4.75;;;16.50;76.50;;;18.54;40.85;97388.34;5053139;28;20043;-72
2022/12/12 00:27:24;;;;;;;10.75;5.65;;;16.60;76.70;;;18.55;40.66;97389.94;5069454;28;20036;-72
2022/12/12 00:29:52;;;;;;;9.25;5.88;;;16.60;76.70;;;18.57;40.74;97395.06;5034491;28;20043;-72
2022/12/12 00:32:18;;;;;;;8.45;5.68;;;16.60;76.40;;;18.56;40.40;97386.03;5018449;28;20045;-72
2022/12/12 00:34:44;;;;;;;8.77;5.13;;;16.60;76.40;;;18.58;40.31;97386.47;5038983;28;20033;-72
2022/12/12 00:37:10;;;;;;;9.13;5.82;;;16.60;76.30;;;18.59;40.71;97382.56;5062592;28;20369;-72
2022/12/12 00:39:36;;;;;;;8.63;6.32;;;16.60;76.60;;;18.63;40.54;97385.38;5053000;28;20044;-72
2022/12/12 00:42:02;;;;;;;10.02;5.97;;;16.60;77.20;;;18.58;40.74;97377.44;5035676;28;20058;-72
2022/12/12 00:44:29;;;;;;;8.88;5.95;;;16.60;76.80;;;18.57;40.57;97381.31;5055079;28;20048;-72
2022/12/12 00:46:54;;;;;;;10.02;5.45;;;16.60;76.70;;;18.62;40.56;97387.34;5049134;28;20040;-72
2022/12/12 00:49:21;;;;;;;9.25;5.28;;;16.60;76.60;;;18.52;40.73;97385.19;5040636;28;20067;-72
2022/12/12 00:51:47;;;;;;;9.10;6.20;;;16.70;76.50;;;18.62;40.34;97381.03;5053318;28;20127;-72
2022/12/12 00:54:13;;;;;;;8.30;5.82;;;16.70;76.00;;;18.62;40.51;97386.53;5051320;28;20037;-72
2022/12/12 00:56:39;;;;;;;8.13;5.45;;;16.70;77.20;;;18.63;40.49;97382.66;5068242;28;20174;-72
2022/12/12 00:59:06;;;;;;;8.15;6.35;;;16.70;76.60;;;18.63;40.55;97386.19;5069870;28;20047;-72
2022/12/12 01:01:32;;;;;;;7.95;6.07;;;16.70;76.70;;;18.67;40.37;97388.97;5050182;28;20041;-72
2022/12/12 01:03:59;;;;;;;7.13;5.35;;;16.70;76.50;;;18.65;40.32;97389.38;5015575;28;20107;-72
2022/12/12 01:06:25;;;;;;;13.10;6.32;;;16.70;76.30;;;18.61;40.29;97380.25;5036918;28;20040;-71
2022/12/12 01:08:51;;;;;;;11.38;6.13;;;16.70;76.00;;;18.60;40.50;97375.91;5038550;28;20055;-71
2022/12/12 01:11:18;;;;;;;8.63;5.53;;;16.70;76.00;;;18.62;40.63;97367.31;5049817;28;20119;-72
2022/12/12 01:13:46;;;;;;;8.68;5.82;;;16.70;76.50;;;18.65;40.45;97374.84;5018108;28;20045;-71
2022/12/12 01:16:12;;;;;;;9.55;5.32;;;16.70;76.80;;;18.64;40.28;97370.50;5020524;28;20421;-71
2022/12/12 01:18:39;;;;;;;8.93;5.20;;;16.70;76.50;;;18.57;40.44;97365.66;5032201;28;20043;-71
2022/12/12 01:21:11;;;;;;;8.68;5.88;;;16.70;76.50;;;18.64;40.36;97367.75;5029227;28;20049;-72
2022/12/12 01:23:38;;;;;;;7.30;5.53;;;16.70;76.20;;;18.62;40.30;97370.06;5016591;28;20032;-72
2022/12/12 01:26:10;;;;;;;9.98;6.15;;;16.70;76.20;;;18.60;40.52;97362.19;5029615;28;20506;-72
2022/12/12 01:28:36;;;;;;;10.57;5.72;;;16.70;76.50;;;18.64;40.51;97356.75;5054053;28;20044;-71
2022/12/12 01:31:02;;;;;;;9.73;6.30;;;16.70;76.60;;;18.64;40.60;97362.25;5034401;28;20044;-72
2022/12/12 01:33:28;;;;;;;7.53;5.85;;;16.70;76.50;;;18.64;40.32;97367.75;5036933;28;20484;-72
2022/12/12 01:35:55;;;;;;;6.97;5.32;;;16.80;76.10;;;18.68;40.26;97357.63;5039269;28;20467;-72
2022/12/12 01:38:23;;;;;;;11.95;6.15;;;16.90;75.80;;;18.66;40.31;97363.47;5062638;28;20759;-72
2022/12/12 01:40:50;;;;;;;9.90;5.50;;;16.80;75.70;;;18.68;40.40;97360.38;5042163;28;20043;-72
2022/12/12 01:43:18;;;;;;;11.55;6.07;;;16.80;76.00;;;18.66;40.53;97354.44;5033416;28;20048;-72
2022/12/12 01:46:02;;;;;;;8.02;5.63;;;16.70;76.40;;;18.65;40.43;97350.91;5040140;28;20071;-72
2022/12/12 01:48:35;;;;;;;8.15;5.35;;;16.70;76.60;;;18.70;40.40;97366.31;5068046;28;20055;-72
2022/12/12 01:51:06;;;;;;;11.55;6.00;;;16.80;76.40;;;18.71;40.23;97356.91;5074246;28;20117;-72
2022/12/12 01:53:32;;;;;;;10.18;6.65;;;16.80;76.30;;;18.70;40.03;97358.06;5025045;28;20047;-72
2022/12/12 01:55:58;;;;;;;10.80;6.10;;;16.80;76.10;;;18.65;40.33;97359.16;5024148;28;20040;-72
2022/12/12 01:58:25;;;;;;;11.13;6.07;;;16.80;76.10;;;18.64;40.49;97346.56;5038522;28;20036;-72
2022/12/12 02:00:50;;;;;;;12.82;5.70;;;16.70;76.20;;;18.65;40.33;97355.63;5036318;28;20036;-72
2022/12/12 02:03:17;;;;;;;8.48;5.85;;;16.70;76.50;;;18.68;40.51;97356.84;5024227;28;20040;-72
2022/12/12 02:05:52;;;;;;;8.60;5.55;;;16.70;76.60;;;18.68;40.38;97352.16;5056779;28;20479;-72
2022/12/12 02:08:19;;;;;;;9.73;5.97;;;16.80;76.30;;;18.70;40.21;97349.84;5041437;28;20433;-72
2022/12/12 02:10:45;;;;;;;11.27;6.35;;;16.80;75.70;;;18.69;40.06;97358.44;5034984;28;20337;-72
2022/12/12 02:13:16;;;;;;;9.18;5.35;;;16.80;75.50;;;18.67;40.38;97347.78;5053222;28;20465;-72
2022/12/12 02:16:04;;;;;;;8.80;6.35;;;16.80;75.90;;;18.65;40.39;97347.38;5022438;28;20045;-72
2022/12/12 02:18:41;;;;;;;7.90;6.00;;;16.80;76.00;;;18.66;40.29;97349.75;5045297;28;20040;-72
2022/12/12 02:21:22;;;;;;;8.18;5.30;;;16.80;76.20;;;18.73;40.17;97346.34;5037346;28;20733;-72
2022/12/12 02:24:00;;;;;;;8.83;5.67;;;16.80;75.90;;;18.66;40.21;97355.25;5068065;28;20036;-72
2022/12/12 02:27:05;;;;;;;9.35;5.65;;;16.80;75.60;;;18.63;40.37;97361.47;5072213;28;20302;-72
2022/12/12 02:30:34;;;;;;;10.10;5.28;;;16.80;75.60;;;18.63;40.36;97350.47;5060291;28;20044;-72
2022/12/12 02:33:37;;;;;;;11.55;5.80;;;16.80;75.80;;;18.62;40.44;97356.31;5041502;28;20051;-73
2022/12/12 02:36:26;;;;;;;11.95;6.20;;;16.70;76.10;;;18.66;40.22;97351.69;5043251;28;20499;-72
2022/12/12 02:39:39;;;;;;;7.43;5.53;;;16.80;76.20;;;18.64;40.29;97351.25;5069220;28;20044;-72
2022/12/12 02:42:18;;;;;;;9.88;6.13;;;16.80;75.90;;;18.60;40.32;97351.22;5040356;28;20055;-72
2022/12/12 02:44:53;;;;;;;9.52;6.22;;;16.80;75.30;;;18.63;40.03;97350.47;5041629;28;20122;-72
2022/12/12 02:47:31;;;;;;;10.43;6.40;;;16.80;75.30;;;18.63;40.31;97352.44;5040836;28;20048;-72
2022/12/12 02:50:12;;;;;;;9.23;6.43;;;16.90;75.60;;;18.67;40.58;97350.53;5022164;28;20036;-72
2022/12/12 02:52:38;;;;;;;6.53;4.55;;;16.90;76.00;;;18.65;40.29;97350.13;5052644;28;20049;-72
2022/12/12 02:55:05;;;;;;;10.85;6.82;;;16.90;75.60;;;18.62;40.22;97351.66;5021000;28;20103;-73
2022/12/12 02:57:32;;;;;;;7.47;4.55;;;16.80;75.60;;;18.65;40.01;97347.38;5054092;28;20044;-72
2022/12/12 03:00:14;;;;;;;8.38;5.90;;;16.80;75.30;;;18.59;39.99;97344.09;5069403;28;20040;-72
2022/12/12 03:09:38;;;;;;;8.32;5.95;;;16.70;76.10;;;18.52;40.30;97344.00;5070023;28;20044;-72
2022/12/12 03:12:13;;;;;;;6.65;4.90;;;16.80;76.10;;;18.49;40.36;97350.19;5031059;28;20045;-72
2022/12/12 03:15:14;;;;;;;8.77;5.28;;;16.80;75.50;;;18.55;40.10;97343.25;5038457;28;20041;-72
2022/12/12 03:17:44;;;;;;;8.65;5.88;;;16.70;75.50;;;18.54;40.26;97336.16;5050731;28;20159;-72
2022/12/12 03:20:35;;;;;;;9.55;6.00;;;16.80;75.30;;;18.55;40.31;97342.47;5053012;28;20082;-72
2022/12/12 03:23:14;;;;;;;8.10;5.93;;;16.70;75.80;;;18.52;40.75;97337.69;5052833;28;20040;-72
2022/12/12 03:25:59;;;;;;;7.22;5.13;;;16.70;76.10;;;18.54;40.05;97343.59;5023777;28;20044;-72
2022/12/12 03:28:36;;;;;;;8.18;5.15;;;16.70;75.80;;;18.54;40.26;97341.66;5022142;28;20044;-72
2022/12/12 03:31:06;;;;;;;10.57;6.28;;;16.80;75.70;;;18.55;40.20;97345.22;5036775;28;20102;-72
2022/12/12 03:33:56;;;;;;;7.78;5.95;;;16.80;75.20;;;18.50;39.99;97342.75;5022709;28;20414;-72
2022/12/12 03:36:36;;;;;;;8.65;4.90;;;16.80;75.20;;;18.50;40.33;97343.56;5027580;28;20046;-72
2022/12/12 03:39:07;;;;;;;7.75;5.45;;;16.70;75.70;;;18.49;40.71;97341.94;5039560;28;20091;-72
2022/12/12 03:41:40;;;;;;;9.40;5.82;;;16.70;76.10;;;18.46;40.31;97350.13;5024852;28;20049;-72
2022/12/12 03:44:15;;;;;;;7.43;5.25;;;16.80;75.90;;;18.50;40.35;97345.50;5047206;28;20545;-72
2022/12/12 03:46:53;;;;;;;8.32;5.47;;;16.70;75.20;;;18.48;40.28;97345.06;5002846;28;20037;-72
2022/12/12 03:49:24;;;;;;;7.78;5.80;;;16.70;75.10;;;18.43;40.19;97346.94;5037889;28;20047;-72
2022/12/12 03:51:57;;;;;;;7.43;5.75;;;16.80;75.20;;;18.47;40.50;97344.28;5033780;28;20036;-72
2022/12/12 03:54:47;;;;;;;6.88;5.45;;;16.70;75.30;;;18.44;40.51;97340.31;5038232;28;20040;-72
2022/12/12 03:57:35;;;;;;;7.95;6.35;;;16.70;76.10;;;18.39;40.38;97351.56;5037713;28;20048;-72
2022/12/12 04:00:07;;;;;;;6.82;5.32;;;16.70;75.70;;;18.40;40.07;97342.16;5036850;28;20103;-72
2022/12/12 04:02:42;;;;;;;7.53;5.93;;;16.70;75.10;;;18.36;39.88;97348.72;5040087;28;20052;-71
2022/12/12 04:05:24;;;;;;;8.93;5.63;;;16.70;75.10;;;18.43;39.65;97348.88;5069464;28;20061;-71
2022/12/12 04:08:01;;;;;;;9.15;5.15;;;16.70;74.50;;;18.36;40.37;97354.22;5053793;28;20044;-71
2022/12/12 04:13:27;;;;;;;7.35;5.78;;;16.60;75.00;;;18.39;39.99;97345.25;5043921;28;20052;-71
2022/12/12 04:16:03;;;;;;;9.02;5.85;;;16.60;75.00;;;18.34;39.58;97346.38;5056100;28;20102;-72
2022/12/12 04:19:07;;;;;;;8.23;5.00;;;16.70;74.70;;;18.34;39.23;97346.38;5020770;28;20144;-71
2022/12/12 04:24:41;;;;;;;7.25;5.80;;;16.60;74.00;;;18.32;39.76;97340.44;5029548;28;20040;-71
2022/12/12 04:27:24;;;;;;;8.23;6.32;;;16.60;75.50;;;18.32;40.06;97345.94;5040077;28;20081;-72
2022/12/12 04:30:11;;;;;;;8.70;5.60;;;16.50;74.80;;;18.26;39.80;97341.06;5038234;28;20068;-72
2022/12/12 04:32:58;;;;;;;7.75;5.88;;;16.60;75.00;;;18.29;39.64;97345.84;5048109;28;20139;-72
2022/12/12 04:35:38;;;;;;;9.40;6.22;;;16.60;74.40;;;18.26;39.28;97341.06;5056108;28;20033;-72
2022/12/12 04:38:09;;;;;;;7.63;6.28;;;16.60;73.90;;;18.32;39.25;97348.66;5036120;28;20040;-72
2022/12/12 04:40:37;;;;;;;;;;;16.60;73.90;;;18.21;39.74;97347.63;5016713;28;20404;-72
2022/12/12 04:43:07;;;;;;;10.25;5.35;;;16.50;74.30;;;18.24;39.88;97344.16;5028076;28;19928;-72
2022/12/12 04:45:40;;;;;;;6.28;4.72;;;16.50;74.80;;;18.22;39.66;97347.28;5018896;28;20055;-72
2022/12/12 04:48:07;;;;;;;9.55;6.18;;;16.50;74.70;;;18.24;39.59;97344.16;5037371;28;20064;-72
2022/12/12 04:50:33;;;;;;;8.50;5.85;;;16.60;74.20;;;18.21;39.12;97344.88;5037914;28;20071;-72
2022/12/12 04:53:01;;;;;;;8.45;6.03;;;16.60;74.60;;;18.18;39.28;97349.13;5036211;28;20205;-72
2022/12/12 04:55:33;;;;;;;7.57;5.40;;;16.50;73.40;;;18.24;39.07;97346.91;5033846;28;20128;-72
2022/12/12 04:57:59;;;;;;;8.73;6.35;;;16.50;73.50;;;18.20;39.47;97351.53;5015570;28;20040;-72
2022/12/12 05:00:27;;;;;;;8.63;5.47;;;16.50;74.00;;;18.23;39.66;97343.38;5039981;28;20040;-72
2022/12/12 05:03:17;;;;;;;6.07;4.53;;;16.40;74.40;;;18.23;39.15;97342.59;5035262;28;20116;-72
2022/12/12 05:05:55;;;;;;;7.55;5.20;;;16.50;74.10;;;18.17;39.24;97349.53;5075748;28;20056;-72
2022/12/12 05:08:24;;;;;;;9.52;5.32;;;16.60;73.60;;;18.19;39.21;97349.94;5044155;28;20545;-71
2022/12/12 05:10:54;;;;;;;7.72;5.55;;;16.60;73.30;;;18.20;38.80;97348.78;5072758;28;20044;-71
2022/12/12 05:13:23;;;;;;;9.85;5.43;;;16.60;73.00;;;18.23;39.05;97350.81;5040752;28;20036;-71
2022/12/12 05:15:52;;;;;;;9.18;6.43;;;16.40;73.60;;;18.21;39.38;97350.38;5040653;28;20492;-71
2022/12/12 05:18:18;;;;;;;7.13;5.72;;;16.40;73.90;;;18.22;39.40;97351.97;5023685;28;20473;-71
2022/12/12 05:20:44;;;;;;;9.65;5.32;;;16.40;73.90;;;18.21;38.89;97342.94;5008423;28;20041;-71
2022/12/12 05:23:10;;;;;;;8.45;6.20;;;16.50;73.40;;;18.17;39.02;97347.56;5020663;28;20423;-71
2022/12/12 05:25:36;;;;;;;6.88;5.03;;;16.60;73.10;;;18.18;38.96;97351.09;5023462;28;20045;-71
2022/12/12 05:28:02;;;;;;;8.15;5.80;;;16.60;72.70;;;18.14;38.89;97342.81;5037903;28;20461;-71
2022/12/12 05:30:28;;;;;;;10.50;6.65;;;16.60;72.60;;;18.16;38.99;97356.16;5041146;28;20051;-71
2022/12/12 05:32:54;;;;;;;6.57;4.68;;;16.50;73.00;;;18.19;39.35;97358.16;5052225;28;20048;-71
2022/12/12 05:35:21;;;;;;;6.15;5.05;;;16.50;73.80;;;18.20;38.86;97354.28;5025138;28;20048;-71
2022/12/12 05:37:47;;;;;;;6.43;5.65;;;16.40;73.40;;;18.18;38.76;97356.59;5035485;28;20049;-71
2022/12/12 05:40:13;;;;;;;7.22;5.25;;;16.50;73.10;;;18.14;38.66;97356.53;5073202;28;20539;-71
2022/12/12 05:42:39;;;;;;;7.38;5.13;;;16.50;72.80;;;18.16;38.48;97362.41;5024874;28;20044;-71
2022/12/12 05:45:06;;;;;;;6.00;4.40;;;16.50;72.50;;;18.16;39.03;97353.41;5039681;28;20060;-72
2022/12/12 05:47:32;;;;;;;8.57;5.00;;;16.40;72.80;;;18.16;39.25;97354.19;5045563;28;20049;-72
2022/12/12 05:49:59;;;;;;;7.30;5.55;;;16.40;73.40;;;18.17;39.26;97365.97;5023414;28;20044;-72
2022/12/12 05:52:25;;;;;;;7.63;5.07;;;16.40;73.80;;;18.15;39.07;97360.84;5056292;28;20129;-72
2022/12/12 05:54:51;;;;;;;8.38;5.45;;;16.40;73.20;;;18.17;38.94;97360.50;5056369;28;20044;-72
2022/12/12 05:57:17;;;;;;;6.95;5.28;;;16.50;73.00;;;18.16;38.79;97364.38;5039004;28;20041;-71
2022/12/12 05:59:45;;;;;;;6.90;5.30;;;16.50;73.00;;;18.15;38.91;97365.53;5055986;28;20055;-71
2022/12/12 06:02:11;;;;;;;6.15;4.85;;;16.50;73.10;;;18.14;39.05;97370.25;5073773;28;20529;-72
2022/12/12 06:04:38;;;;;;;6.78;5.35;;;16.50;73.20;;;18.14;39.36;97364.75;5013754;28;20496;-72
2022/12/12 06:07:04;;;;;;;7.05;5.57;;;16.50;73.60;;;18.13;39.17;97373.34;5050718;28;20044;-71
2022/12/12 06:09:30;;;;;;;8.00;5.35;;;16.40;73.80;;;18.11;39.29;97370.16;5035275;28;20098;-71
2022/12/12 06:11:56;;;;;;;8.20;6.05;;;16.40;73.50;;;18.14;38.90;97377.66;5017040;28;20048;-71
2022/12/12 06:14:23;;;;;;;7.13;5.35;;;16.40;73.40;;;18.10;39.01;97374.84;5032457;28;20044;-71
2022/12/12 06:16:49;;;;;;;7.00;5.15;;;16.40;73.10;;;18.14;39.38;97383.16;5016055;28;20623;-71
2022/12/12 06:19:18;;;;;;;6.97;5.32;;;16.50;73.30;;;18.09;39.58;97386.16;5004128;28;20041;-72
2022/12/12 06:21:44;;;;;;;9.32;6.05;;;16.40;73.80;;;18.18;39.50;97386.78;5029773;28;20049;-72
2022/12/12 06:24:10;;;;;;;5.97;4.68;;;16.50;74.00;;;18.11;39.56;97383.88;5053352;28;20041;-72
2022/12/12 06:26:36;;;;;;;7.85;4.93;;;16.40;74.10;;;18.08;39.15;97388.13;5030143;28;20504;-73
2022/12/12 06:29:02;;;;;;;8.93;4.80;;;16.40;74.10;;;18.09;39.15;97388.91;5050451;28;20064;-73
2022/12/12 06:31:28;;;;;;;8.80;5.97;;;16.40;73.40;;;18.08;39.33;97390.88;5035703;28;20064;-72
2022/12/12 06:33:54;;;;;;;8.82;4.95;;;16.40;73.40;;;18.11;39.53;97401.13;5028934;28;20041;-71
2022/12/12 06:36:25;;;;;;;9.30;5.35;;;16.40;73.60;;;18.18;42.51;97389.53;5049304;28;20546;-72
2022/12/12 06:38:54;;;;;;;7.63;4.82;;;16.50;79.00;;;18.13;41.20;97398.03;5016388;28;20091;-72
2022/12/12 06:41:20;;;;;;;9.48;4.70;;;16.60;76.30;;;18.07;41.02;97399.47;5027749;28;20475;-72
2022/12/12 06:43:47;;;;;;;8.55;5.28;;;16.50;75.90;;;18.10;40.78;97401.50;5030902;28;20040;-72
2022/12/12 06:46:16;;;;;;;6.75;5.80;;;16.50;75.60;;;18.10;40.63;97396.78;5055076;28;20048;-72
2022/12/12 06:48:42;;;;;;;8.45;5.05;;;16.40;75.40;;;18.09;40.53;97399.88;5029290;28;20071;-72
2022/12/12 06:51:15;;;;;;;9.00;4.95;;;16.40;75.50;;;18.08;40.78;97401.84;5029065;28;20546;-72
2022/12/12 06:53:41;;;;;;;8.82;5.18;;;16.30;76.00;;;18.10;40.81;97407.78;4999871;28;20037;-72
2022/12/12 06:56:18;;;;;;;8.82;5.55;;;16.30;76.30;;;18.09;40.65;97397.13;5032045;28;20125;-72
2022/12/12 06:58:45;;;;;;;7.43;5.35;;;16.30;76.40;;;18.07;40.38;97400.25;5033238;28;20040;-72
2022/12/12 07:01:12;;;;;;;8.00;5.43;;;16.30;75.60;;;18.08;40.17;97406.53;5016251;28;20052;-72
2022/12/12 07:03:38;;;;;;;6.47;4.93;;;16.30;75.60;;;18.06;40.47;97397.84;5034030;28;20041;-72
2022/12/12 07:06:05;;;;;;;6.25;5.18;;;16.30;75.50;;;18.04;40.24;97400.97;5047524;28;20047;-72
2022/12/12 07:08:32;;;;;;;5.88;4.47;;;16.20;75.40;;;18.03;40.45;97401.31;5047255;28;20431;-72
2022/12/12 07:11:11;;;;;;;7.05;4.95;;;16.20;75.80;;;18.06;40.36;97412.38;5027682;28;20040;-72
2022/12/12 07:13:37;;;;;;;8.45;5.28;;;16.20;75.90;;;18.08;40.21;97406.53;5029441;28;20051;-72
2022/12/12 07:16:04;;;;;;;7.90;5.25;;;16.20;75.70;;;18.01;40.20;97409.91;5028409;28;20044;-72
2022/12/12 07:18:30;;;;;;;7.32;4.93;;;16.10;75.70;;;18.03;39.96;97415.84;5040576;28;20052;-72
2022/12/12 07:20:56;;;;;;;12.25;5.75;;;16.10;75.60;;;18.03;40.27;97415.84;5050571;28;20079;-72
2022/12/12 07:23:22;;;;;;;11.00;5.18;;;16.20;75.50;;;18.02;40.21;97413.47;5064814;28;20037;-72
2022/12/12 07:25:48;;;;;;;8.82;4.90;;;16.20;75.50;;;18.09;40.07;97419.09;5053353;28;20045;-72
2022/12/12 07:28:14;;;;;;;9.60;5.35;;;16.20;75.70;;;18.03;40.29;97417.78;5042913;28;20488;-72
2022/12/12 07:30:43;;;;;;;7.50;4.78;;;16.10;75.80;;;18.02;40.08;97414.25;5031500;28;20040;-72
2022/12/12 07:33:10;;;;;;;5.68;5.03;;;16.20;75.50;;;17.95;40.37;97419.56;5034215;28;20047;-72
2022/12/12 07:35:36;;;;;;;10.40;5.50;;;16.10;75.40;;;17.99;40.28;97424.00;4994034;28;20411;-72
2022/12/12 07:38:02;;;;;;;5.18;4.47;;;16.10;75.50;;;17.98;39.82;97418.84;5026045;28;20053;-72
2022/12/12 07:40:28;;;;;;;5.53;4.80;;;16.10;75.30;;;17.99;40.47;97415.75;5035292;28;20040;-72
2022/12/12 07:42:55;;;;;;;7.72;5.07;;;16.10;75.70;;;18.00;40.56;97411.06;5031364;28;20051;-72
2022/12/12 07:45:21;;;;;;;8.35;5.22;;;16.10;75.90;;;17.99;40.20;97421.25;5012023;28;20037;-72
2022/12/12 07:47:47;;;;;;;6.22;5.15;;;16.10;75.90;;;17.99;40.00;97418.50;5048533;28;20044;-72
2022/12/12 07:50:13;;;;;;;6.20;5.03;;;16.10;75.60;;;17.99;40.00;97413.03;5049132;28;20047;-71
2022/12/12 07:52:39;;;;;;;6.05;4.70;;;16.10;75.20;;;17.97;39.94;97414.53;5044474;28;20036;-71
2022/12/12 07:55:05;;;;;;;11.50;4.95;;;16.10;75.10;;;17.98;40.29;97414.16;5014397;28;20045;-71
2022/12/12 07:57:32;;;;;;;7.97;4.55;;;16.10;75.10;;;18.04;40.12;97411.13;5047194;28;20056;-71
2022/12/12 07:59:58;;;;;;;6.85;5.30;;;16.10;75.40;;;18.02;40.32;97405.22;5045763;28;20032;-71
2022/12/12 08:02:24;;;;;;;7.18;4.70;;;16.10;75.60;;;17.97;39.94;97412.56;5032286;28;20056;-71
2022/12/12 08:04:50;;;;;;;9.27;5.78;;;16.00;75.30;;;17.96;39.84;97413.72;4997838;28;20045;-71
2022/12/12 08:07:16;;;;;;;8.35;5.43;;;16.00;75.10;;;17.96;40.02;97416.47;5049072;28;20044;-71
2022/12/12 08:09:42;;;;;;;6.75;5.30;;;16.10;75.10;;;18.01;39.66;97423.63;5048968;28;20126;-71
2022/12/12 08:12:09;;;;;;;5.82;4.53;;;16.10;74.40;;;17.98;39.94;97425.13;5049805;28;20047;-71
2022/12/12 08:14:36;;;;;;;5.20;4.32;;;16.10;75.10;;;18.04;40.24;97427.59;5049290;28;20411;-71
2022/12/12 08:17:02;;;;;;;6.20;5.00;;;16.00;75.20;;;18.03;40.32;97426.00;5016043;28;20044;-71
2022/12/12 08:19:28;;;;;;;8.45;4.95;;;16.00;75.80;;;18.02;39.81;97424.44;5063560;28;20496;-71
2022/12/12 08:21:54;;;;;;;6.97;4.95;;;16.10;75.10;;;17.98;40.03;97425.13;5066525;28;20509;-71
2022/12/12 08:24:20;;;;;;;5.10;4.53;;;16.20;74.80;;;17.97;40.06;97423.53;5050487;28;20040;-71
2022/12/12 08:26:48;;;;;;;7.90;5.68;;;16.10;74.50;;;17.91;39.92;97430.47;5045443;28;20037;-71
2022/12/12 08:29:14;;;;;;;6.80;4.68;;;16.10;74.40;;;18.00;39.83;97433.00;5034082;28;20117;-71
2022/12/12 08:31:40;;;;;;;7.20;5.22;;;16.10;75.00;;;18.06;39.95;97430.78;5034994;28;20456;-71
2022/12/12 08:34:06;;;;;;;6.90;5.30;;;16.00;75.40;;;18.07;39.69;97432.41;5052215;28;20097;-71
2022/12/12 08:36:33;;;;;;;6.00;4.55;;;16.00;75.40;;;18.03;39.73;97432.28;5023777;28;20041;-71
2022/12/12 08:39:08;;;;;;;7.32;4.65;;;16.00;75.20;;;18.03;39.87;97428.75;5013674;28;20036;-71
2022/12/12 08:41:36;;;;;;;5.95;5.05;;;16.20;74.60;;;17.99;39.80;97429.47;5017559;28;20669;-71
2022/12/12 08:44:02;;;;;;;6.28;5.35;;;16.20;74.50;;;18.00;39.73;97439.28;5035447;28;20064;-71
2022/12/12 08:46:28;;;;;;;6.75;4.90;;;16.20;74.50;;;18.04;39.70;97441.31;5067109;28;20055;-71
2022/12/12 08:48:54;;;;;;;5.93;4.63;;;16.20;74.80;;;18.06;39.58;97436.28;5071340;28;20140;-71
2022/12/12 08:51:20;;;;;;;5.47;4.93;;;16.10;75.00;;;17.98;39.93;97436.09;5018533;28;20518;-71
2022/12/12 08:53:47;;;;;;;9.40;5.55;;;16.10;74.70;;;17.98;39.99;97440.78;5034469;28;20040;-71
2022/12/12 08:56:14;;;;;;;8.15;4.90;;;16.20;74.50;;;17.96;39.76;97434.88;5026856;28;20096;-71
2022/12/12 08:58:41;;;;;;;7.25;5.32;;;16.10;74.40;;;17.95;39.64;97442.31;5020141;28;20898;-71
2022/12/12 09:01:11;;;;;;;7.95;4.93;;;16.10;75.20;;;18.03;39.67;97437.00;5035127;28;20483;-71
2022/12/12 09:03:37;;;;;;;7.03;4.50;;;16.10;74.80;;;18.11;39.80;97438.75;5035111;28;20443;-71
2022/12/12 09:06:06;;;;;;;6.57;4.72;;;16.10;75.10;;;18.07;39.91;97437.88;5070543;28;20049;-71
2022/12/12 09:08:33;;;;;;;7.45;5.22;;;16.10;75.30;;;18.02;39.65;97435.41;5036123;28;20119;-71
2022/12/12 09:10:59;;;;;;;6.38;5.00;;;16.10;74.80;;;17.98;39.66;97435.31;5054568;28;20124;-71
2022/12/12 09:13:25;;;;;;;8.13;5.85;;;16.10;74.60;;;17.98;39.81;97441.59;5037495;28;20123;-71
2022/12/12 09:15:51;;;;;;;7.10;5.07;;;16.10;74.40;;;18.03;39.54;97440.53;5037549;28;20468;-71
2022/12/12 09:18:21;;;;;;;7.18;5.43;;;16.20;74.50;;;18.12;39.50;97437.59;5028459;28;20044;-71
2022/12/12 09:20:52;;;;;;;6.10;4.82;;;16.20;74.50;;;18.12;39.60;97445.84;5029705;28;20041;-71
2022/12/12 09:23:18;;;;;;;8.30;5.57;;;16.10;74.70;;;18.07;39.65;97438.69;5032680;28;20055;-71
2022/12/12 09:25:44;;;;;;;8.32;5.85;;;16.10;74.50;;;18.05;39.75;97443.72;5052636;28;20117;-71
2022/12/12 09:28:11;;;;;;;6.88;5.28;;;16.10;74.50;;;18.06;39.43;97434.31;5036826;28;20396;-71
2022/12/12 09:30:38;;;;;;;8.30;5.80;;;16.20;74.50;;;18.02;39.60;97441.69;5014474;28;20551;-71
2022/12/12 09:33:04;;;;;;;7.18;4.85;;;16.20;74.50;;;18.14;39.50;97443.50;5037508;28;20059;-71
2022/12/12 09:35:30;;;;;;;9.80;5.78;;;16.20;74.50;;;18.13;39.45;97437.22;5057524;28;20044;-71
2022/12/12 09:37:56;;;;;;;5.38;4.88;;;16.20;74.60;;;18.15;39.49;97436.91;5036607;28;20052;-71
2022/12/12 09:40:31;;;;;;;6.95;5.32;;;16.20;74.60;;;18.11;39.42;97438.75;5070035;28;20044;-71
2022/12/12 09:42:57;;;;;;;6.78;5.78;;;16.30;74.60;;;18.06;39.43;97433.53;5021032;28;20040;-71
2022/12/12 09:45:23;;;;;;;7.28;4.95;;;16.20;74.50;;;18.09;39.26;97435.56;5019254;28;20063;-71
2022/12/12 09:47:53;;;;;;;5.32;4.80;;;16.30;74.20;;;18.11;39.26;97438.75;5061330;28;20044;-71
2022/12/12 09:50:41;;;;;;;5.90;5.00;;;16.30;74.20;;;18.20;39.38;97433.88;5022888;28;20144;-71
2022/12/12 09:53:15;;;;;;;8.65;5.38;;;16.30;74.50;;;18.16;38.96;97442.00;5048744;28;20041;-71
2022/12/12 09:56:14;;;;;;;7.00;4.80;;;16.30;73.60;;;18.19;39.14;97432.25;5027518;28;20496;-71
2022/12/12 09:58:49;;;;;;;7.05;5.30;;;16.40;73.90;;;18.17;39.13;97426.34;5030478;28;20041;-71
2022/12/12 10:01:38;;;;;;;6.47;5.40;;;16.40;73.70;;;18.17;39.15;97440.09;5023925;28;20045;-71
2022/12/12 10:04:50;;;;;;;6.32;5.30;;;16.40;73.60;;;18.16;39.11;97438.47;5039070;28;20385;-71
2022/12/12 10:07:20;;;;;;;;;;;16.40;73.60;;;18.23;38.87;97435.91;4990086;28;20054;-71
2022/12/12 10:09:53;;;;;;;6.80;5.38;;;16.40;73.70;;;18.23;38.96;97433.94;5034189;28;19924;-71
2022/12/12 10:12:19;;;;;;;6.40;4.88;;;16.30;73.90;;;18.20;39.18;97440.16;5041913;28;20480;-71
2022/12/12 10:14:57;;;;;;;6.75;5.60;;;16.40;73.90;;;18.18;39.15;97434.22;5043984;28;20044;-71
2022/12/12 10:17:41;;;;;;;7.60;5.43;;;16.40;73.60;;;18.18;39.09;97444.41;5033534;28;20047;-71
2022/12/12 10:20:20;;;;;;;9.48;6.65;;;16.40;73.60;;;18.17;39.03;97438.13;5053990;28;20109;-71
2022/12/12 10:23:03;;;;;;;7.53;5.30;;;16.30;73.40;;;18.21;39.09;97432.72;5031285;28;20048;-71
2022/12/12 10:25:48;;;;;;;11.50;5.95;;;16.30;73.80;;;18.20;39.17;97429.16;5035444;28;20052;-71
2022/12/12 10:28:17;;;;;;;7.63;5.65;;;16.40;74.10;;;18.21;39.15;97432.72;5037794;28;20072;-71
2022/12/12 10:30:52;;;;;;;5.95;5.30;;;16.40;73.70;;;18.11;39.38;97433.25;5023841;28;20044;-71
2022/12/12 10:34:02;;;;;;;8.25;6.30;;;16.40;73.60;;;18.10;39.09;97423.44;5067829;28;20071;-71
2022/12/12 10:36:55;;;;;;;9.00;5.85;;;16.40;73.50;;;18.11;39.05;97425.81;5057046;28;20059;-71
2022/12/12 10:40:04;;;;;;;6.25;5.65;;;16.40;73.30;;;18.17;38.94;97431.84;5038284;28;20119;-71
2022/12/12 10:42:55;;;;;;;7.57;4.80;;;16.30;73.80;;;18.15;39.18;97423.97;5065191;28;20404;-71
2022/12/12 10:45:39;;;;;;;6.70;5.38;;;16.30;73.90;;;18.03;39.27;97434.25;5052086;28;20344;-71
2022/12/12 10:48:06;;;;;;;7.82;6.30;;;16.30;73.80;;;18.06;39.32;97422.56;5051172;28;20044;-71